sensor_id;sensor_type;location;lat;lon;timestamp;pressure;altitude;pressure_sealevel;temperature;humidity
75549;BME280;64133;56.002;37.208;2022-10-31T00:04:09;97335.91;;;0.26;60.60
75549;BME280;64133;56.002;37.208;2022-10-31T00:09:14;97321.86;;;0.12;60.78
75549;BME280;64133;56.002;37.208;2022-10-31T00:14:19;97336.22;;;0.10;60.77
75549;BME280;64133;56.002;37.208;2022-10-31T00:19:24;97331.84;;;0.05;61.04
75549;BME280;64133;56.002;37.208;2022-10-31T00:24:29;97334.04;;;0.22;60.58
75549;BME280;64133;56.002;37.208;2022-10-31T00:29:34;97327.66;;;0.21;60.90
75549;BME280;64133;56.002;37.208;2022-10-31T00:34:39;97319.17;;;0.13;60.92
75549;BME280;64133;56.002;37.208;2022-10-31T00:39:45;97313.81;;;0.28;60.76
75549;BME280;64133;56.002;37.208;2022-10-31T00:44:50;97313.15;;;0.13;61.07
75549;BME280;64133;56.002;37.208;2022-10-31T00:49:55;97318.50;;;0.22;61.50
75549;BME280;64133;56.002;37.208;2022-10-31T00:54:59;97323.98;;;0.12;62.55
75549;BME280;64133;56.002;37.208;2022-10-31T01:00:06;97324.43;;;0.06;63.21
75549;BME280;64133;56.002;37.208;2022-10-31T01:05:11;97319.23;;;0.01;64.60
75549;BME280;64133;56.002;37.208;2022-10-31T01:10:16;97317.86;;;-0.16;66.62
75549;BME280;64133;56.002;37.208;2022-10-31T01:15:21;97318.58;;;-0.33;67.92
75549;BME280;64133;56.002;37.208;2022-10-31T01:20:26;97318.97;;;-0.44;69.62
75549;BME280;64133;56.002;37.208;2022-10-31T01:25:31;97328.76;;;-0.61;71.81
75549;BME280;64133;56.002;37.208;2022-10-31T01:30:36;97333.16;;;-0.68;73.35
75549;BME280;64133;56.002;37.208;2022-10-31T01:35:41;97323.70;;;-0.88;76.20
75549;BME280;64133;56.002;37.208;2022-10-31T01:40:46;97323.94;;;-0.91;77.34
75549;BME280;64133;56.002;37.208;2022-10-31T01:45:52;97327.20;;;-0.94;77.84
75549;BME280;64133;56.002;37.208;2022-10-31T01:50:58;97325.44;;;-0.94;78.32
75549;BME280;64133;56.002;37.208;2022-10-31T01:56:03;97335.77;;;-0.94;78.27
75549;BME280;64133;56.002;37.208;2022-10-31T02:01:08;97338.31;;;-0.87;78.30
75549;BME280;64133;56.002;37.208;2022-10-31T02:06:16;97330.55;;;-0.87;78.62
75549;BME280;64133;56.002;37.208;2022-10-31T02:11:19;97332.09;;;-0.97;79.61
75549;BME280;64133;56.002;37.208;2022-10-31T02:16:24;97335.46;;;-1.02;80.50
75549;BME280;64133;56.002;37.208;2022-10-31T02:21:32;97334.02;;;-1.06;80.39
75549;BME280;64133;56.002;37.208;2022-10-31T02:27:07;97327.24;;;-1.02;80.11
75549;BME280;64133;56.002;37.208;2022-10-31T02:32:13;97332.72;;;-1.06;80.47
75549;BME280;64133;56.002;37.208;2022-10-31T02:42:31;97319.68;;;-0.92;80.66
75549;BME280;64133;56.002;37.208;2022-10-31T02:47:36;97320.00;;;-0.96;80.69
75549;BME280;64133;56.002;37.208;2022-10-31T02:52:41;97325.59;;;-1.15;81.40
75549;BME280;64133;56.002;37.208;2022-10-31T02:57:46;97328.53;;;-1.14;81.58
75549;BME280;64133;56.002;37.208;2022-10-31T03:03:00;97333.15;;;-1.12;81.40
75549;BME280;64133;56.002;37.208;2022-10-31T03:08:08;97325.91;;;-0.94;80.78
75549;BME280;64133;56.002;37.208;2022-10-31T03:13:13;97328.65;;;-1.03;80.66
75549;BME280;64133;56.002;37.208;2022-10-31T03:18:18;97325.39;;;-0.99;80.83
75549;BME280;64133;56.002;37.208;2022-10-31T03:23:23;97328.95;;;-1.08;80.70
75549;BME280;64133;56.002;37.208;2022-10-31T03:28:29;97328.06;;;-1.01;80.72
75549;BME280;64133;56.002;37.208;2022-10-31T03:33:34;97324.96;;;-0.93;80.70
75549;BME280;64133;56.002;37.208;2022-10-31T03:43:55;97331.63;;;-0.96;80.78
75549;BME280;64133;56.002;37.208;2022-10-31T03:48:59;97334.59;;;-0.95;81.30
75549;BME280;64133;56.002;37.208;2022-10-31T03:54:06;97343.80;;;-1.04;81.29
75549;BME280;64133;56.002;37.208;2022-10-31T03:59:14;97347.87;;;-1.07;81.33
75549;BME280;64133;56.002;37.208;2022-10-31T04:04:14;97354.95;;;-1.04;81.60
75549;BME280;64133;56.002;37.208;2022-10-31T04:09:19;97357.06;;;-1.03;81.34
75549;BME280;64133;56.002;37.208;2022-10-31T04:14:25;97348.53;;;-1.11;82.08
75549;BME280;64133;56.002;37.208;2022-10-31T04:19:30;97360.00;;;-1.02;81.80
75549;BME280;64133;56.002;37.208;2022-10-31T04:24:35;97357.06;;;-1.03;81.89
75549;BME280;64133;56.002;37.208;2022-10-31T04:29:40;97364.63;;;-1.00;82.02
75549;BME280;64133;56.002;37.208;2022-10-31T04:34:45;97381.14;;;-1.03;82.11
75549;BME280;64133;56.002;37.208;2022-10-31T04:39:50;97382.70;;;-1.13;82.45
75549;BME280;64133;56.002;37.208;2022-10-31T04:44:55;97386.00;;;-0.98;82.83
75549;BME280;64133;56.002;37.208;2022-10-31T04:50:00;97390.70;;;-0.97;82.70
75549;BME280;64133;56.002;37.208;2022-10-31T04:55:07;97403.58;;;-0.90;82.89
75549;BME280;64133;56.002;37.208;2022-10-31T05:00:14;97414.47;;;-0.92;83.07
75549;BME280;64133;56.002;37.208;2022-10-31T05:05:19;97425.91;;;-0.89;83.30
75549;BME280;64133;56.002;37.208;2022-10-31T05:10:24;97423.88;;;-0.79;83.35
75549;BME280;64133;56.002;37.208;2022-10-31T05:15:29;97438.88;;;-0.84;83.14
75549;BME280;64133;56.002;37.208;2022-10-31T05:20:34;97454.07;;;-0.79;83.14
75549;BME280;64133;56.002;37.208;2022-10-31T05:25:39;97466.49;;;-0.71;83.35
75549;BME280;64133;56.002;37.208;2022-10-31T05:30:44;97477.83;;;-0.41;82.99
75549;BME280;64133;56.002;37.208;2022-10-31T05:35:49;97483.16;;;-0.37;82.73
75549;BME280;64133;56.002;37.208;2022-10-31T05:40:58;97487.70;;;-0.41;83.04
75549;BME280;64133;56.002;37.208;2022-10-31T05:46:04;97502.51;;;-0.43;82.92
75549;BME280;64133;56.002;37.208;2022-10-31T05:51:09;97513.61;;;-0.22;83.42
75549;BME280;64133;56.002;37.208;2022-10-31T05:56:14;97525.04;;;-0.07;82.92
75549;BME280;64133;56.002;37.208;2022-10-31T06:01:19;97541.50;;;0.05;83.11
75549;BME280;64133;56.002;37.208;2022-10-31T06:06:24;97550.41;;;0.01;82.93
75549;BME280;64133;56.002;37.208;2022-10-31T06:11:29;97558.83;;;0.10;82.73
75549;BME280;64133;56.002;37.208;2022-10-31T06:16:34;97569.56;;;0.30;82.79
75549;BME280;64133;56.002;37.208;2022-10-31T06:21:39;97583.63;;;0.38;82.99
75549;BME280;64133;56.002;37.208;2022-10-31T06:26:44;97598.80;;;0.68;82.72
75549;BME280;64133;56.002;37.208;2022-10-31T06:31:53;97611.44;;;0.73;82.04
75549;BME280;64133;56.002;37.208;2022-10-31T06:36:59;97627.66;;;0.69;81.54
75549;BME280;64133;56.002;37.208;2022-10-31T06:42:04;97634.73;;;1.28;81.54
75549;BME280;64133;56.002;37.208;2022-10-31T06:47:25;97649.64;;;1.67;79.48
75549;BME280;64133;56.002;37.208;2022-10-31T06:52:30;97659.88;;;1.57;78.44
75549;BME280;64133;56.002;37.208;2022-10-31T06:57:35;97675.74;;;1.23;79.56
75549;BME280;64133;56.002;37.208;2022-10-31T07:02:40;97688.21;;;1.18;80.60
75549;BME280;64133;56.002;37.208;2022-10-31T07:07:45;97704.05;;;1.44;80.41
75549;BME280;64133;56.002;37.208;2022-10-31T07:12:54;97721.56;;;1.59;79.84
75549;BME280;64133;56.002;37.208;2022-10-31T07:18:01;97744.53;;;1.76;79.17
75549;BME280;64133;56.002;37.208;2022-10-31T07:23:07;97757.83;;;1.66;79.07
75549;BME280;64133;56.002;37.208;2022-10-31T07:28:12;97770.70;;;1.49;79.19
75549;BME280;64133;56.002;37.208;2022-10-31T07:33:17;97772.09;;;1.66;79.33
75549;BME280;64133;56.002;37.208;2022-10-31T07:38:22;97785.70;;;2.29;78.03
75549;BME280;64133;56.002;37.208;2022-10-31T07:43:27;97803.66;;;2.67;77.18
75549;BME280;64133;56.002;37.208;2022-10-31T07:48:34;97806.20;;;3.36;74.60
75549;BME280;64133;56.002;37.208;2022-10-31T07:53:39;97813.64;;;3.46;72.06
75549;BME280;64133;56.002;37.208;2022-10-31T07:58:45;97823.69;;;6.56;61.97
75549;BME280;64133;56.002;37.208;2022-10-31T08:03:50;97815.05;;;14.39;46.27
75549;BME280;64133;56.002;37.208;2022-10-31T08:08:56;97841.23;;;8.14;55.78
75549;BME280;64133;56.002;37.208;2022-10-31T08:14:04;97844.48;;;5.94;60.04
75549;BME280;64133;56.002;37.208;2022-10-31T08:19:09;97861.43;;;3.34;66.89
75549;BME280;64133;56.002;37.208;2022-10-31T08:24:17;97878.10;;;3.09;69.84
75549;BME280;64133;56.002;37.208;2022-10-31T08:29:28;97877.77;;;8.29;58.78
75549;BME280;64133;56.002;37.208;2022-10-31T11:52:00;98134.94;;;2.58;74.25
75549;BME280;64133;56.002;37.208;2022-10-31T11:57:05;98140.17;;;2.63;74.36
75549;BME280;64133;56.002;37.208;2022-10-31T12:02:17;98129.67;;;2.52;74.79
75549;BME280;64133;56.002;37.208;2022-10-31T12:07:21;98143.14;;;2.51;74.83
75549;BME280;64133;56.002;37.208;2022-10-31T12:12:52;98143.89;;;2.41;74.83
75549;BME280;64133;56.002;37.208;2022-10-31T12:23:24;98164.00;;;2.32;75.68
75549;BME280;64133;56.002;37.208;2022-10-31T12:34:07;98162.55;;;2.40;75.78
75549;BME280;64133;56.002;37.208;2022-10-31T12:39:28;98173.34;;;2.34;75.52
75549;BME280;64133;56.002;37.208;2022-10-31T12:50:39;98182.75;;;2.30;75.29
75549;BME280;64133;56.002;37.208;2022-10-31T12:55:51;98187.08;;;2.36;75.20
75549;BME280;64133;56.002;37.208;2022-10-31T13:01:07;98204.64;;;2.33;75.20
75549;BME280;64133;56.002;37.208;2022-10-31T13:06:13;98215.34;;;2.28;74.71
75549;BME280;64133;56.002;37.208;2022-10-31T13:11:16;98228.02;;;2.33;75.45
75549;BME280;64133;56.002;37.208;2022-10-31T13:16:25;98245.03;;;2.31;74.97
75549;BME280;64133;56.002;37.208;2022-10-31T13:21:30;98241.35;;;2.21;75.40
75549;BME280;64133;56.002;37.208;2022-10-31T13:26:37;98245.61;;;2.22;75.52
75549;BME280;64133;56.002;37.208;2022-10-31T13:31:43;98249.31;;;2.25;75.64
75549;BME280;64133;56.002;37.208;2022-10-31T13:36:52;98261.50;;;2.17;75.76
75549;BME280;64133;56.002;37.208;2022-10-31T13:41:58;98266.25;;;2.18;75.76
75549;BME280;64133;56.002;37.208;2022-10-31T13:47:01;98273.94;;;2.19;75.66
75549;BME280;64133;56.002;37.208;2022-10-31T13:52:21;98276.92;;;2.13;76.22
75549;BME280;64133;56.002;37.208;2022-10-31T13:57:22;98279.16;;;2.12;76.49
75549;BME280;64133;56.002;37.208;2022-10-31T14:02:28;98289.72;;;2.16;76.23
75549;BME280;64133;56.002;37.208;2022-10-31T14:07:32;98295.80;;;2.03;76.69
75549;BME280;64133;56.002;37.208;2022-10-31T14:12:38;98301.30;;;1.98;76.87
75549;BME280;64133;56.002;37.208;2022-10-31T14:17:46;98303.41;;;2.06;76.82
75549;BME280;64133;56.002;37.208;2022-10-31T14:22:50;98307.03;;;2.03;76.51
75549;BME280;64133;56.002;37.208;2022-10-31T14:27:56;98312.11;;;2.05;76.60
75549;BME280;64133;56.002;37.208;2022-10-31T14:33:01;98317.77;;;2.04;76.41
75549;BME280;64133;56.002;37.208;2022-10-31T14:44:09;98334.11;;;2.06;76.64
75549;BME280;64133;56.002;37.208;2022-10-31T14:49:24;98349.41;;;2.04;76.59
75549;BME280;64133;56.002;37.208;2022-10-31T14:54:28;98351.00;;;2.06;76.25
75549;BME280;64133;56.002;37.208;2022-10-31T14:59:35;98352.66;;;2.00;76.11
75549;BME280;64133;56.002;37.208;2022-10-31T15:04:39;98362.33;;;1.98;76.12
75549;BME280;64133;56.002;37.208;2022-10-31T15:09:44;98371.95;;;2.03;76.17
75549;BME280;64133;56.002;37.208;2022-10-31T15:14:49;98372.43;;;1.95;76.40
75549;BME280;64133;56.002;37.208;2022-10-31T15:19:54;98383.68;;;1.96;76.35
75549;BME280;64133;56.002;37.208;2022-10-31T15:24:59;98380.91;;;1.92;76.23
75549;BME280;64133;56.002;37.208;2022-10-31T15:30:18;98403.16;;;1.96;75.88
75549;BME280;64133;56.002;37.208;2022-10-31T15:35:24;98404.82;;;1.97;75.64
75549;BME280;64133;56.002;37.208;2022-10-31T15:40:28;98412.79;;;1.94;75.50
75549;BME280;64133;56.002;37.208;2022-10-31T15:45:34;98416.97;;;1.89;75.49
75549;BME280;64133;56.002;37.208;2022-10-31T15:50:39;98431.98;;;1.91;75.54
75549;BME280;64133;56.002;37.208;2022-10-31T15:55:47;98430.70;;;1.84;75.52
75549;BME280;64133;56.002;37.208;2022-10-31T16:01:39;98437.56;;;1.85;75.98
75549;BME280;64133;56.002;37.208;2022-10-31T16:12:35;98439.14;;;1.73;76.41
75549;BME280;64133;56.002;37.208;2022-10-31T16:17:40;98448.61;;;1.67;76.64
75549;BME280;64133;56.002;37.208;2022-10-31T16:22:46;98465.66;;;1.64;77.07
75549;BME280;64133;56.002;37.208;2022-10-31T16:27:52;98462.13;;;1.65;77.19
75549;BME280;64133;56.002;37.208;2022-10-31T16:32:57;98464.46;;;1.63;77.62
75549;BME280;64133;56.002;37.208;2022-10-31T16:38:02;98473.25;;;1.60;77.44
75549;BME280;64133;56.002;37.208;2022-10-31T16:43:10;98472.99;;;1.58;78.04
75549;BME280;64133;56.002;37.208;2022-10-31T16:48:16;98480.84;;;1.56;77.88
75549;BME280;64133;56.002;37.208;2022-10-31T16:53:19;98494.48;;;1.60;77.48
75549;BME280;64133;56.002;37.208;2022-10-31T16:58:25;98498.83;;;1.45;78.17
75549;BME280;64133;56.002;37.208;2022-10-31T17:03:29;98497.16;;;1.51;77.85
75549;BME280;64133;56.002;37.208;2022-10-31T17:08:34;98507.08;;;1.51;78.07
75549;BME280;64133;56.002;37.208;2022-10-31T17:13:39;98501.81;;;1.53;77.89
75549;BME280;64133;56.002;37.208;2022-10-31T17:18:44;98509.47;;;1.47;77.74
75549;BME280;64133;56.002;37.208;2022-10-31T17:23:49;98518.14;;;1.62;77.36
75549;BME280;64133;56.002;37.208;2022-10-31T17:28:54;98529.41;;;1.47;77.21
75549;BME280;64133;56.002;37.208;2022-10-31T17:33:59;98539.24;;;1.56;77.02
75549;BME280;64133;56.002;37.208;2022-10-31T17:39:04;98546.88;;;1.66;76.75
75549;BME280;64133;56.002;37.208;2022-10-31T17:44:10;98546.64;;;1.48;76.48
75549;BME280;64133;56.002;37.208;2022-10-31T17:49:15;98557.34;;;1.65;76.35
75549;BME280;64133;56.002;37.208;2022-10-31T17:54:20;98563.90;;;1.56;76.74
75549;BME280;64133;56.002;37.208;2022-10-31T17:59:26;98570.45;;;1.47;76.56
75549;BME280;64133;56.002;37.208;2022-10-31T18:04:31;98577.61;;;1.44;76.63
75549;BME280;64133;56.002;37.208;2022-10-31T18:09:36;98595.41;;;1.50;76.69
75549;BME280;64133;56.002;37.208;2022-10-31T18:14:41;98596.67;;;1.43;76.79
75549;BME280;64133;56.002;37.208;2022-10-31T18:19:46;98596.94;;;1.38;76.66
75549;BME280;64133;56.002;37.208;2022-10-31T18:24:51;98596.73;;;1.34;77.01
75549;BME280;64133;56.002;37.208;2022-10-31T18:29:56;98592.48;;;1.33;77.03
75549;BME280;64133;56.002;37.208;2022-10-31T18:35:01;98596.52;;;1.23;77.19
75549;BME280;64133;56.002;37.208;2022-10-31T18:40:07;98600.41;;;1.23;76.67
75549;BME280;64133;56.002;37.208;2022-10-31T18:45:12;98613.17;;;1.19;76.85
75549;BME280;64133;56.002;37.208;2022-10-31T18:50:17;98615.05;;;1.24;76.68
75549;BME280;64133;56.002;37.208;2022-10-31T18:55:22;98623.39;;;1.22;76.53
75549;BME280;64133;56.002;37.208;2022-10-31T19:05:47;98617.27;;;1.23;76.71
75549;BME280;64133;56.002;37.208;2022-10-31T19:10:52;98631.29;;;1.12;76.47
75549;BME280;64133;56.002;37.208;2022-10-31T19:16:01;98644.72;;;1.11;76.48
75549;BME280;64133;56.002;37.208;2022-10-31T19:21:06;98654.72;;;1.10;76.55
75549;BME280;64133;56.002;37.208;2022-10-31T19:26:11;98653.33;;;1.12;76.17
75549;BME280;64133;56.002;37.208;2022-10-31T19:31:16;98669.61;;;1.07;76.08
75549;BME280;64133;56.002;37.208;2022-10-31T19:36:22;98678.28;;;1.14;76.34
75549;BME280;64133;56.002;37.208;2022-10-31T19:41:27;98684.03;;;1.04;76.09
75549;BME280;64133;56.002;37.208;2022-10-31T19:46:31;98682.61;;;0.98;76.35
75549;BME280;64133;56.002;37.208;2022-10-31T19:51:36;98683.17;;;0.96;76.50
75549;BME280;64133;56.002;37.208;2022-10-31T19:56:41;98690.09;;;0.95;76.63
75549;BME280;64133;56.002;37.208;2022-10-31T20:01:46;98701.23;;;0.97;76.69
75549;BME280;64133;56.002;37.208;2022-10-31T20:06:51;98706.11;;;0.95;76.89
75549;BME280;64133;56.002;37.208;2022-10-31T20:11:56;98710.02;;;0.86;77.27
75549;BME280;64133;56.002;37.208;2022-10-31T20:17:01;98713.91;;;0.86;77.22
75549;BME280;64133;56.002;37.208;2022-10-31T20:22:06;98723.23;;;0.82;77.37
75549;BME280;64133;56.002;37.208;2022-10-31T20:27:11;98724.17;;;0.72;78.09
75549;BME280;64133;56.002;37.208;2022-10-31T20:32:16;98722.86;;;0.81;77.91
75549;BME280;64133;56.002;37.208;2022-10-31T20:37:21;98733.40;;;0.69;78.00
75549;BME280;64133;56.002;37.208;2022-10-31T20:42:26;98727.75;;;0.69;78.07
75549;BME280;64133;56.002;37.208;2022-10-31T20:47:31;98725.16;;;0.69;77.68
75549;BME280;64133;56.002;37.208;2022-10-31T20:52:36;98727.47;;;0.67;77.76
75549;BME280;64133;56.002;37.208;2022-10-31T20:57:41;98738.34;;;0.73;77.80
75549;BME280;64133;56.002;37.208;2022-10-31T21:02:46;98743.06;;;0.74;77.53
75549;BME280;64133;56.002;37.208;2022-10-31T21:07:51;98741.62;;;0.77;77.37
75549;BME280;64133;56.002;37.208;2022-10-31T21:12:56;98750.01;;;0.73;77.29
75549;BME280;64133;56.002;37.208;2022-10-31T21:18:01;98749.59;;;0.65;77.14
75549;BME280;64133;56.002;37.208;2022-10-31T21:23:06;98731.66;;;0.61;77.10
75549;BME280;64133;56.002;37.208;2022-10-31T21:28:11;98756.45;;;0.66;77.16
75549;BME280;64133;56.002;37.208;2022-10-31T21:33:16;98762.15;;;0.64;77.15
75549;BME280;64133;56.002;37.208;2022-10-31T21:38:21;98773.11;;;0.69;77.25
75549;BME280;64133;56.002;37.208;2022-10-31T21:43:26;98777.70;;;0.64;77.12
75549;BME280;64133;56.002;37.208;2022-10-31T21:48:30;98787.47;;;0.59;77.50
75549;BME280;64133;56.002;37.208;2022-10-31T21:58:49;98789.41;;;0.89;77.15
75549;BME280;64133;56.002;37.208;2022-10-31T22:03:54;98805.50;;;0.78;77.12
75549;BME280;64133;56.002;37.208;2022-10-31T22:09:00;98801.71;;;0.68;77.43
75549;BME280;64133;56.002;37.208;2022-10-31T22:14:04;98807.82;;;0.67;77.41
75549;BME280;64133;56.002;37.208;2022-10-31T22:19:10;98817.36;;;0.58;77.51
75549;BME280;64133;56.002;37.208;2022-10-31T22:24:15;98829.48;;;0.48;77.03
75549;BME280;64133;56.002;37.208;2022-10-31T22:29:20;98833.88;;;0.64;76.85
75549;BME280;64133;56.002;37.208;2022-10-31T22:34:24;98834.20;;;0.66;76.32
75549;BME280;64133;56.002;37.208;2022-10-31T22:39:29;98835.17;;;0.55;76.45
75549;BME280;64133;56.002;37.208;2022-10-31T22:44:34;98835.12;;;0.48;76.89
75549;BME280;64133;56.002;37.208;2022-10-31T22:49:39;98846.83;;;0.38;78.02
75549;BME280;64133;56.002;37.208;2022-10-31T22:54:44;98847.61;;;0.40;78.57
75549;BME280;64133;56.002;37.208;2022-10-31T22:59:49;98842.66;;;0.44;79.50
75549;BME280;64133;56.002;37.208;2022-10-31T23:04:54;98842.80;;;0.41;79.43
75549;BME280;64133;56.002;37.208;2022-10-31T23:09:58;98841.50;;;0.41;79.96
75549;BME280;64133;56.002;37.208;2022-10-31T23:15:04;98843.32;;;0.47;80.18
75549;BME280;64133;56.002;37.208;2022-10-31T23:20:10;98851.09;;;0.39;80.50
75549;BME280;64133;56.002;37.208;2022-10-31T23:25:15;98856.13;;;0.50;80.87
75549;BME280;64133;56.002;37.208;2022-10-31T23:30:36;98854.73;;;0.35;81.08
75549;BME280;64133;56.002;37.208;2022-10-31T23:35:43;98848.81;;;0.33;81.49
75549;BME280;64133;56.002;37.208;2022-10-31T23:40:48;98855.32;;;0.05;82.00
75549;BME280;64133;56.002;37.208;2022-10-31T23:45:53;98856.13;;;-0.03;81.86
75549;BME280;64133;56.002;37.208;2022-10-31T23:50:57;98862.68;;;0.04;82.07
75549;BME280;64133;56.002;37.208;2022-10-31T23:56:02;98862.61;;;-0.03;82.25
